createdAt,value
2022-10-23T00:02:42.286Z,9.52
2022-10-23T00:05:28.446Z,9.50
2022-10-23T00:08:13.234Z,9.53
2022-10-23T00:10:58.064Z,9.54
2022-10-23T00:13:43.274Z,9.56
2022-10-23T00:16:28.471Z,9.54
2022-10-23T00:19:13.629Z,9.55
2022-10-23T00:21:58.717Z,9.58
2022-10-23T00:24:43.587Z,9.56
2022-10-23T00:27:28.421Z,9.60
2022-10-23T00:30:14.089Z,9.59
2022-10-23T00:32:58.717Z,9.60
2022-10-23T00:35:43.575Z,9.58
2022-10-23T00:38:28.507Z,9.58
2022-10-23T00:41:17.879Z,9.59
2022-10-23T00:44:07.859Z,9.61
2022-10-23T00:46:52.553Z,9.61
2022-10-23T00:49:40.687Z,9.60
2022-10-23T00:52:28.882Z,9.60
2022-10-23T00:55:15.242Z,9.63
2022-10-23T00:58:00.049Z,9.64
2022-10-23T01:00:47.157Z,9.65
2022-10-23T01:03:32.078Z,9.64
2022-10-23T01:06:26.090Z,9.68
2022-10-23T01:09:41.831Z,9.69
2022-10-23T01:12:50.220Z,9.71
2022-10-23T01:15:56.181Z,9.70
2022-10-23T01:18:58.333Z,9.73
2022-10-23T01:22:02.696Z,9.72
2022-10-23T01:24:56.944Z,9.73
2022-10-23T01:27:49.857Z,9.73
2022-10-23T01:33:42.206Z,9.77
2022-10-23T01:36:31.832Z,9.75
2022-10-23T01:39:25.024Z,9.73
2022-10-23T01:42:12.814Z,9.75
2022-10-23T01:45:12.563Z,9.74
2022-10-23T01:48:03.890Z,9.76
2022-10-23T01:50:50.012Z,9.74
2022-10-23T01:53:40.534Z,9.76
2022-10-23T01:56:32.952Z,9.76
2022-10-23T01:59:23.059Z,9.79
2022-10-23T02:02:10.876Z,9.79
2022-10-23T02:05:16.507Z,9.80
2022-10-23T02:08:02.292Z,9.77
2022-10-23T02:10:49.998Z,9.82
2022-10-23T02:13:39.225Z,9.81
2022-10-23T02:16:42.077Z,9.82
2022-10-23T02:19:44.953Z,9.82
2022-10-23T02:22:37.693Z,9.84
2022-10-23T02:25:42.580Z,9.82
2022-10-23T02:28:38.745Z,9.84
2022-10-23T02:31:24.739Z,9.86
2022-10-23T02:34:11.535Z,9.86
2022-10-23T02:36:56.429Z,9.87
2022-10-23T02:39:43.193Z,9.88
2022-10-23T02:43:00.217Z,9.89
2022-10-23T02:46:01.110Z,9.89
2022-10-23T02:48:53.288Z,9.85
2022-10-23T02:51:50.285Z,9.90
2022-10-23T02:55:10.845Z,9.90
2022-10-23T02:58:32.645Z,9.89
2022-10-23T03:01:23.004Z,9.90
2022-10-23T03:04:10.669Z,9.89
2022-10-23T03:06:56.474Z,9.89
2022-10-23T03:09:41.524Z,9.89
2022-10-23T03:12:26.485Z,9.90
2022-10-23T03:15:12.006Z,9.87
2022-10-23T03:17:57.850Z,9.90
2022-10-23T03:20:42.933Z,9.89
2022-10-23T03:23:28.590Z,9.90
2022-10-23T03:26:13.443Z,9.88
2022-10-23T03:29:00.900Z,9.88
2022-10-23T03:31:45.770Z,9.87
2022-10-23T03:34:31.780Z,9.90
2022-10-23T03:37:16.724Z,9.90
2022-10-23T03:40:03.642Z,9.93
2022-10-23T03:42:52.673Z,9.92
2022-10-23T03:45:38.001Z,9.92
2022-10-23T03:48:24.361Z,9.90
2022-10-23T03:51:09.950Z,9.93
2022-10-23T03:53:57.959Z,9.93
2022-10-23T03:56:43.095Z,9.93
2022-10-23T03:59:28.528Z,9.93
2022-10-23T04:02:13.574Z,9.93
2022-10-23T04:04:58.307Z,9.94
2022-10-23T04:07:43.423Z,9.93
2022-10-23T04:10:28.947Z,9.94
2022-10-23T04:13:14.022Z,9.94
2022-10-23T04:16:00.608Z,9.95
2022-10-23T04:18:45.456Z,9.94
2022-10-23T04:21:30.371Z,9.92
2022-10-23T04:24:15.456Z,9.92
2022-10-23T04:27:00.571Z,9.94
2022-10-23T04:29:48.599Z,9.94
2022-10-23T04:32:33.431Z,9.93
2022-10-23T04:35:19.626Z,9.91
2022-10-23T04:38:04.433Z,9.93
2022-10-23T04:40:49.521Z,9.95
2022-10-23T04:43:39.613Z,9.94
2022-10-23T04:46:25.568Z,9.96
2022-10-23T04:49:10.561Z,9.95
2022-10-23T04:52:24.851Z,9.97
2022-10-23T04:55:52.928Z,9.99
2022-10-23T04:58:46.794Z,9.97
2022-10-23T05:01:32.159Z,9.98
2022-10-23T05:04:18.154Z,9.98
2022-10-23T05:10:48.346Z,10.02
2022-10-23T05:13:34.871Z,10.02
2022-10-23T05:16:32.621Z,10.03
2022-10-23T05:19:25.966Z,10.04
2022-10-23T05:22:12.770Z,10.03
2022-10-23T05:25:10.761Z,10.06
2022-10-23T05:27:56.050Z,10.04
2022-10-23T05:30:41.782Z,10.05
2022-10-23T05:33:27.051Z,10.05
2022-10-23T05:36:13.521Z,10.08
2022-10-23T05:38:58.825Z,10.11
2022-10-23T05:41:44.419Z,10.12
2022-10-23T05:44:29.199Z,10.15
2022-10-23T05:47:26.162Z,10.15
2022-10-23T05:50:29.696Z,10.16
2022-10-23T05:53:38.807Z,10.18
2022-10-23T05:56:46.727Z,10.17
2022-10-23T05:59:39.796Z,10.20
2022-10-23T06:02:51.011Z,10.24
2022-10-23T06:05:50.325Z,10.26
2022-10-23T06:08:38.399Z,10.32
2022-10-23T06:11:23.763Z,10.28
2022-10-23T06:14:16.431Z,10.26
2022-10-23T06:17:01.273Z,10.28
2022-10-23T06:19:46.352Z,10.28
2022-10-23T06:22:34.300Z,10.31
2022-10-23T06:25:32.947Z,10.33
2022-10-23T06:28:20.810Z,10.31
2022-10-23T06:31:07.970Z,10.36
2022-10-23T06:33:54.809Z,10.39
2022-10-23T06:36:39.740Z,10.46
2022-10-23T06:39:46.086Z,10.47
2022-10-23T06:42:34.737Z,10.49
2022-10-23T06:45:42.847Z,10.49
2022-10-23T06:48:31.554Z,10.52
2022-10-23T06:51:21.264Z,10.52
2022-10-23T06:54:06.496Z,10.52
2022-10-23T06:57:20.353Z,10.55
2022-10-23T07:00:05.954Z,10.55
2022-10-23T07:02:59.894Z,10.59
2022-10-23T07:05:47.170Z,10.64
2022-10-23T07:08:33.051Z,10.64
2022-10-23T07:11:21.067Z,10.62
2022-10-23T07:14:06.810Z,10.63
2022-10-23T07:16:51.711Z,10.65
2022-10-23T07:19:37.123Z,10.68
2022-10-23T07:22:26.474Z,10.69
2022-10-23T07:25:26.397Z,10.74
2022-10-23T07:28:11.570Z,10.76
2022-10-23T07:30:58.359Z,10.76
2022-10-23T07:33:48.896Z,10.75
2022-10-23T07:36:36.682Z,10.76
2022-10-23T07:39:21.925Z,10.77
2022-10-23T07:42:09.967Z,10.76
2022-10-23T07:44:54.944Z,10.77
2022-10-23T07:47:40.717Z,10.80
2022-10-23T07:50:26.936Z,10.83
2022-10-23T07:53:20.722Z,10.84
2022-10-23T07:56:15.718Z,10.83
2022-10-23T07:59:22.979Z,10.88
2022-10-23T08:02:15.036Z,10.88
2022-10-23T08:05:00.707Z,10.91
2022-10-23T08:07:52.808Z,10.93
2022-10-23T08:10:37.714Z,10.97
2022-10-23T08:13:24.295Z,10.98
2022-10-23T08:16:14.663Z,10.98
2022-10-23T08:19:19.566Z,10.99
2022-10-23T08:22:07.290Z,10.99
2022-10-23T08:24:52.302Z,11.03
2022-10-23T08:27:37.779Z,11.06
2022-10-23T08:30:23.110Z,11.13
2022-10-23T08:33:08.713Z,11.21
2022-10-23T08:35:53.493Z,11.23
2022-10-23T08:38:46.824Z,11.26
2022-10-23T08:41:38.302Z,11.35
2022-10-23T08:44:35.922Z,11.43
2022-10-23T08:47:33.017Z,11.50
2022-10-23T08:50:40.561Z,11.49
2022-10-23T08:54:07.594Z,11.54
2022-10-23T08:56:59.732Z,11.54
2022-10-23T08:59:57.042Z,11.60
2022-10-23T09:02:46.268Z,11.70
2022-10-23T09:05:31.231Z,11.86
2022-10-23T09:08:33.744Z,11.98
2022-10-23T09:11:41.295Z,11.93
2022-10-23T09:14:47.110Z,11.87
2022-10-23T09:17:38.590Z,11.85
2022-10-23T09:20:34.710Z,11.84
2022-10-23T09:23:22.603Z,11.80
2022-10-23T09:26:16.120Z,11.73
2022-10-23T09:29:20.473Z,11.71
2022-10-23T09:32:06.881Z,11.75
2022-10-23T09:34:54.813Z,11.84
2022-10-23T09:37:47.887Z,11.85
2022-10-23T09:40:42.341Z,11.83
2022-10-23T09:43:28.717Z,11.91
2022-10-23T09:46:19.288Z,12.10
2022-10-23T09:49:05.799Z,12.37
2022-10-23T09:51:59.233Z,12.77
2022-10-23T09:54:44.582Z,12.82
2022-10-23T09:57:44.194Z,12.79
2022-10-23T10:00:29.493Z,12.95
2022-10-23T10:03:22.142Z,13.17
2022-10-23T10:06:30.561Z,13.54
2022-10-23T10:09:16.528Z,13.89
2022-10-23T10:12:07.212Z,14.12
2022-10-23T10:15:01.590Z,14.15
2022-10-23T10:18:14.347Z,14.33
2022-10-23T10:21:11.689Z,14.22
2022-10-23T10:24:02.159Z,14.07
2022-10-23T10:27:12.731Z,14.00
2022-10-23T10:30:17.842Z,14.02
2022-10-23T10:33:09.135Z,14.09
2022-10-23T10:36:08.073Z,13.98
2022-10-23T10:39:00.684Z,13.93
2022-10-23T10:41:53.930Z,14.17
2022-10-23T10:45:09.981Z,14.83
2022-10-23T10:48:00.680Z,14.97
2022-10-23T10:51:01.360Z,15.43
2022-10-23T10:54:15.930Z,15.24
2022-10-23T10:57:02.224Z,15.48
2022-10-23T10:59:51.487Z,15.52
2022-10-23T11:02:44.882Z,15.07
2022-10-23T11:05:37.679Z,14.80
2022-10-23T11:08:56.186Z,14.34
2022-10-23T11:11:44.072Z,13.93
2022-10-23T11:14:32.460Z,13.67
2022-10-23T11:17:20.058Z,13.54
2022-10-23T11:20:33.975Z,13.53
2022-10-23T11:23:47.790Z,13.51
2022-10-23T11:26:38.696Z,13.50
2022-10-23T11:29:42.247Z,13.49
2022-10-23T11:32:57.649Z,13.40
2022-10-23T11:35:52.906Z,13.36
2022-10-23T11:38:40.417Z,13.33
2022-10-23T11:41:33.426Z,13.30
2022-10-23T11:44:42.083Z,13.19
2022-10-23T11:47:40.674Z,13.07
2022-10-23T11:50:47.283Z,13.15
2022-10-23T11:53:31.778Z,13.51
2022-10-23T11:56:18.881Z,13.85
2022-10-23T11:59:30.015Z,14.01
2022-10-23T12:02:28.062Z,14.13
2022-10-23T12:05:37.051Z,13.95
2022-10-23T12:08:26.352Z,13.84
2022-10-23T12:11:46.779Z,14.01
2022-10-23T12:15:16.076Z,14.05
2022-10-23T12:18:27.222Z,13.90
2022-10-23T12:21:21.290Z,13.70
2022-10-23T12:24:39.258Z,13.36
2022-10-23T12:27:32.428Z,13.24
2022-10-23T12:30:23.755Z,13.10
2022-10-23T12:33:28.843Z,13.11
2022-10-23T12:36:20.315Z,13.08
2022-10-23T12:39:27.422Z,13.09
2022-10-23T12:42:28.261Z,13.26
2022-10-23T12:45:18.635Z,13.47
2022-10-23T12:48:03.595Z,13.69
2022-10-23T12:50:53.772Z,13.77
2022-10-23T12:53:38.923Z,13.73
2022-10-23T12:56:25.715Z,13.64
2022-10-23T12:59:17.005Z,13.70
2022-10-23T13:02:02.045Z,13.75
2022-10-23T13:04:49.242Z,13.83
2022-10-23T13:07:42.045Z,13.63
2022-10-23T13:10:27.611Z,13.68
2022-10-23T13:13:22.754Z,13.58
2022-10-23T13:16:22.384Z,13.51
2022-10-23T13:19:22.264Z,13.40
2022-10-23T13:22:21.073Z,13.38
2022-10-23T13:25:21.211Z,13.26
2022-10-23T13:28:20.499Z,13.22
2022-10-23T13:31:14.011Z,13.28
2022-10-23T13:34:00.236Z,13.32
2022-10-23T13:36:53.863Z,13.33
2022-10-23T13:39:39.105Z,13.26
2022-10-23T13:42:24.072Z,13.28
2022-10-23T13:45:17.939Z,13.21
2022-10-23T13:48:08.781Z,13.11
2022-10-23T13:50:53.749Z,13.10
2022-10-23T13:53:38.613Z,13.02
2022-10-23T13:56:25.400Z,12.95
2022-10-23T13:59:11.147Z,12.86
2022-10-23T14:01:55.855Z,12.83
2022-10-23T14:04:40.702Z,12.79
2022-10-23T14:07:25.632Z,12.78
2022-10-23T14:10:10.594Z,12.80
2022-10-23T14:12:56.176Z,12.83
2022-10-23T14:15:41.300Z,12.80
2022-10-23T14:18:27.055Z,12.78
2022-10-23T14:21:14.941Z,12.82
2022-10-23T14:23:59.988Z,12.79
2022-10-23T14:26:45.015Z,12.75
2022-10-23T14:29:29.891Z,12.73
2022-10-23T14:32:14.823Z,12.69
2022-10-23T14:35:03.166Z,12.65
2022-10-23T14:37:48.388Z,12.63
2022-10-23T14:40:37.691Z,12.60
2022-10-23T14:43:23.631Z,12.57
2022-10-23T14:46:13.688Z,12.56
2022-10-23T14:49:02.163Z,12.50
2022-10-23T14:51:47.553Z,12.49
2022-10-23T14:54:34.548Z,12.44
2022-10-23T14:57:21.414Z,12.40
2022-10-23T15:00:06.890Z,12.38
2022-10-23T15:02:51.753Z,12.33
2022-10-23T15:05:41.417Z,12.34
2022-10-23T15:08:26.382Z,12.33
2022-10-23T15:11:12.661Z,12.30
2022-10-23T15:13:59.545Z,12.32
2022-10-23T15:16:44.349Z,12.29
2022-10-23T15:19:29.211Z,12.31
2022-10-23T15:22:14.063Z,12.29
2022-10-23T15:24:59.002Z,12.27
2022-10-23T15:27:44.317Z,12.21
2022-10-23T15:30:29.287Z,12.15
2022-10-23T15:33:17.765Z,12.14
2022-10-23T15:36:04.831Z,12.11
2022-10-23T15:38:50.363Z,12.10
2022-10-23T15:41:37.322Z,12.09
2022-10-23T15:44:24.969Z,12.08
2022-10-23T15:47:09.959Z,12.07
2022-10-23T15:49:54.907Z,12.05
2022-10-23T15:52:39.874Z,12.05
2022-10-23T15:55:25.118Z,12.03
2022-10-23T15:58:10.826Z,11.99
2022-10-23T16:00:56.025Z,11.94
2022-10-23T16:03:41.392Z,11.90
2022-10-23T16:06:26.716Z,11.92
2022-10-23T16:09:13.275Z,11.92
2022-10-23T16:11:59.231Z,11.93
2022-10-23T16:14:44.831Z,11.95
2022-10-23T16:17:30.377Z,12.01
2022-10-23T16:20:16.739Z,12.05
2022-10-23T16:23:02.718Z,12.07
2022-10-23T16:25:48.858Z,12.05
2022-10-23T16:28:34.986Z,12.08
2022-10-23T16:31:24.600Z,12.05
2022-10-23T16:34:11.442Z,12.05
2022-10-23T16:36:57.719Z,12.02
2022-10-23T16:39:50.291Z,12.05
2022-10-23T16:42:56.706Z,12.00
2022-10-23T16:45:59.878Z,11.96
2022-10-23T16:48:46.503Z,11.92
2022-10-23T16:51:33.270Z,11.91
2022-10-23T16:54:19.367Z,11.91
2022-10-23T16:57:05.441Z,11.89
2022-10-23T16:59:51.371Z,11.89
2022-10-23T17:02:39.105Z,11.89
2022-10-23T17:05:25.844Z,11.89
2022-10-23T17:08:11.844Z,11.85
2022-10-23T17:11:22.755Z,11.83
2022-10-23T17:14:13.915Z,11.78
2022-10-23T17:17:01.553Z,11.74
2022-10-23T17:19:48.690Z,11.70
2022-10-23T17:22:35.951Z,11.67
2022-10-23T17:25:22.561Z,11.62
2022-10-23T17:28:08.461Z,11.64
2022-10-23T17:30:54.574Z,11.61
2022-10-23T17:33:42.196Z,11.56
2022-10-23T17:36:31.177Z,11.55
2022-10-23T17:39:19.821Z,11.50
2022-10-23T17:42:06.162Z,11.43
2022-10-23T17:44:52.095Z,11.37
2022-10-23T17:47:40.048Z,11.28
2022-10-23T17:50:26.359Z,11.19
2022-10-23T17:53:12.282Z,11.07
2022-10-23T17:56:02.388Z,10.97
2022-10-23T17:58:49.566Z,10.90
2022-10-23T18:01:36.472Z,10.87
2022-10-23T18:04:22.541Z,10.82
2022-10-23T18:07:08.585Z,10.80
2022-10-23T18:09:54.766Z,10.84
2022-10-23T18:12:40.894Z,10.87
2022-10-23T18:15:26.972Z,10.92
2022-10-23T18:18:13.685Z,10.98
2022-10-23T18:21:01.123Z,11.00
2022-10-23T18:23:48.297Z,11.06
2022-10-23T18:26:35.271Z,11.10
2022-10-23T18:29:22.869Z,11.11
2022-10-23T18:32:09.547Z,11.13
2022-10-23T18:34:55.841Z,11.17
2022-10-23T18:37:43.304Z,11.18
2022-10-23T18:40:33.657Z,11.23
2022-10-23T18:43:31.329Z,11.21
2022-10-23T18:46:25.279Z,11.23
2022-10-23T18:49:11.488Z,11.26
2022-10-23T18:51:58.420Z,11.27
2022-10-23T18:54:43.407Z,11.27
2022-10-23T18:57:28.580Z,11.28
2022-10-23T19:00:14.070Z,11.30
2022-10-23T19:02:59.251Z,11.30
2022-10-23T19:05:46.169Z,11.30
2022-10-23T19:08:30.888Z,11.30
2022-10-23T19:11:17.748Z,11.31
2022-10-23T19:14:03.956Z,11.27
2022-10-23T19:17:05.386Z,11.28
2022-10-23T19:19:53.267Z,11.25
2022-10-23T19:22:40.245Z,11.24
2022-10-23T19:25:32.562Z,11.22
2022-10-23T19:28:17.466Z,11.20
2022-10-23T19:31:02.886Z,11.19
2022-10-23T19:33:47.841Z,11.16
2022-10-23T19:36:32.850Z,11.19
2022-10-23T19:39:18.391Z,11.21
2022-10-23T19:42:03.430Z,11.22
2022-10-23T19:44:48.718Z,11.26
2022-10-23T19:47:33.941Z,11.30
2022-10-23T19:50:18.875Z,11.31
2022-10-23T19:53:03.738Z,11.35
2022-10-23T19:55:48.835Z,11.37
2022-10-23T19:58:33.443Z,11.36
2022-10-23T20:01:22.083Z,11.39
2022-10-23T20:04:07.648Z,11.40
2022-10-23T20:06:52.756Z,11.44
2022-10-23T20:09:37.855Z,11.45
2022-10-23T20:12:22.907Z,11.41
2022-10-23T20:15:08.948Z,11.44
2022-10-23T20:17:53.869Z,11.44
2022-10-23T20:20:42.263Z,11.45
2022-10-23T20:23:27.376Z,11.44
2022-10-23T20:26:17.589Z,11.43
2022-10-23T20:29:02.309Z,11.49
2022-10-23T20:31:47.992Z,11.47
2022-10-23T20:34:32.905Z,11.52
2022-10-23T20:37:18.100Z,11.52
2022-10-23T20:40:03.125Z,11.51
2022-10-23T20:42:48.251Z,11.49
2022-10-23T20:45:33.785Z,11.47
2022-10-23T20:48:18.435Z,11.39
2022-10-23T20:51:05.474Z,11.33
2022-10-23T20:53:52.605Z,11.29
2022-10-23T20:56:38.779Z,11.22
2022-10-23T20:59:24.798Z,11.19
2022-10-23T21:02:10.150Z,11.15
2022-10-23T21:04:55.246Z,11.18
2022-10-23T21:07:40.140Z,11.17
2022-10-23T21:10:25.190Z,11.14
2022-10-23T21:13:09.971Z,11.10
2022-10-23T21:15:55.545Z,11.05
2022-10-23T21:18:45.856Z,11.04
2022-10-23T21:21:32.649Z,11.02
2022-10-23T21:24:17.685Z,10.98
2022-10-23T21:27:02.594Z,10.98
2022-10-23T21:29:47.552Z,10.96
2022-10-23T21:32:32.797Z,10.93
2022-10-23T21:35:17.728Z,10.91
2022-10-23T21:38:02.853Z,10.91
2022-10-23T21:40:47.733Z,10.91
2022-10-23T21:43:32.943Z,10.94
2022-10-23T21:46:18.325Z,10.95
2022-10-23T21:49:03.559Z,11.00
2022-10-23T21:51:48.295Z,10.99
2022-10-23T21:54:33.231Z,10.96
2022-10-23T21:57:18.197Z,10.94
2022-10-23T22:00:05.041Z,10.92
2022-10-23T22:02:57.757Z,10.88
2022-10-23T22:05:42.714Z,10.84
2022-10-23T22:08:27.743Z,10.83
2022-10-23T22:11:13.735Z,10.80
2022-10-23T22:13:59.216Z,10.81
2022-10-23T22:16:44.501Z,10.85
2022-10-23T22:19:29.116Z,10.81
2022-10-23T22:22:14.320Z,10.78
2022-10-23T22:24:59.382Z,10.75
2022-10-23T22:27:44.416Z,10.70
2022-10-23T22:30:29.210Z,10.72
2022-10-23T22:33:14.302Z,10.70
2022-10-23T22:36:01.192Z,10.69
2022-10-23T22:38:46.812Z,10.69
2022-10-23T22:41:32.553Z,10.68
2022-10-23T22:44:18.466Z,10.66
2022-10-23T22:47:03.690Z,10.65
2022-10-23T22:49:48.543Z,10.63
2022-10-23T22:52:33.362Z,10.60
2022-10-23T22:55:19.474Z,10.60
2022-10-23T22:58:04.403Z,10.59
2022-10-23T23:00:50.409Z,10.59
2022-10-23T23:03:37.356Z,10.59
2022-10-23T23:06:23.171Z,10.62
2022-10-23T23:09:08.249Z,10.63
2022-10-23T23:11:53.249Z,10.64
2022-10-23T23:14:38.888Z,10.64
2022-10-23T23:17:23.754Z,10.64
2022-10-23T23:20:09.450Z,10.63
2022-10-23T23:22:54.233Z,10.64
2022-10-23T23:25:44.383Z,10.67
2022-10-23T23:28:29.335Z,10.65
2022-10-23T23:31:32.753Z,10.65
2022-10-23T23:34:17.666Z,10.63
2022-10-23T23:37:02.729Z,10.62
2022-10-23T23:39:47.666Z,10.64
2022-10-23T23:42:32.380Z,10.63
2022-10-23T23:45:17.546Z,10.61
2022-10-23T23:48:02.483Z,10.62
2022-10-23T23:50:47.542Z,10.64
2022-10-23T23:53:32.383Z,10.62
2022-10-23T23:56:18.059Z,10.64
2022-10-23T23:59:02.914Z,10.61
